Time;durP1;ratioP1;P1;durP2;ratioP2;P2;SDS_P1;SDS_P2;PMS_P1;PMS_P2;Temp;Humidity;BMP_temperature;BMP_pressure;BME280_temperature;BME280_humidity;BME280_pressure;Samples;Min_cycle;Max_cycle;Signal;HPM_P1;HPM_P2
2023/02/20 00:00:38;;;;;;;9.55;4.97;;;;;;;;;;5059222;28;20494;-57
2023/02/20 00:03:05;;;;;;;11.27;4.32;;;;;;;;;;5059107;28;20035;-58
2023/02/20 00:05:30;;;;;;;8.07;4.40;;;;;;;;;;5063004;28;20024;-57
2023/02/20 00:07:56;;;;;;;14.82;4.47;;;;;;;;;;5053921;28;20120;-57
2023/02/20 00:10:23;;;;;;;10.43;4.60;;;;;;;;;;5058261;28;20033;-57
2023/02/20 00:12:49;;;;;;;14.00;4.45;;;;;;;;;;5062286;28;20040;-57
2023/02/20 00:15:15;;;;;;;16.35;4.72;;;;;;;;;;5061195;28;20028;-58
2023/02/20 00:17:46;;;;;;;13.68;5.03;;;;;;;;;;5059466;28;20020;-58
2023/02/20 00:20:14;;;;;;;10.23;4.63;;;;;;;;;;5065121;28;20036;-57
2023/02/20 00:22:39;;;;;;;10.95;4.80;;;;;;;;;;5057071;28;20029;-58
2023/02/20 00:25:05;;;;;;;11.13;5.47;;;;;;;;;;5059806;28;20032;-56
2023/02/20 00:27:31;;;;;;;9.88;4.78;;;;;;;;;;5061944;28;20431;-57
2023/02/20 00:29:56;;;;;;;15.38;4.90;;;;;;;;;;5062980;28;20057;-58
2023/02/20 00:32:21;;;;;;;12.93;4.75;;;;;;;;;;5062471;28;20104;-57
2023/02/20 00:34:47;;;;;;;10.68;5.03;;;;;;;;;;5066527;28;20055;-58
2023/02/20 00:37:12;;;;;;;9.98;4.18;;;;;;;;;;5069376;28;20031;-57
2023/02/20 00:39:38;;;;;;;20.15;5.35;;;;;;;;;;5067242;28;20028;-57
2023/02/20 00:42:03;;;;;;;11.48;5.00;;;;;;;;;;5069707;28;20082;-57
2023/02/20 00:44:29;;;;;;;13.02;4.70;;;;;;;;;;5062773;28;20086;-56
2023/02/20 00:46:54;;;;;;;9.98;4.60;;;;;;;;;;5060759;28;20067;-57
2023/02/20 00:49:19;;;;;;;15.85;5.28;;;;;;;;;;5062558;28;20390;-57
2023/02/20 00:51:45;;;;;;;8.07;4.20;;;;;;;;;;5061731;28;20063;-57
2023/02/20 00:54:11;;;;;;;10.35;5.30;;;;;;;;;;5060913;28;20413;-57
2023/02/20 00:56:36;;;;;;;10.82;4.57;;;;;;;;;;5067343;28;20037;-56
2023/02/20 00:59:01;;;;;;;13.68;4.93;;;;;;;;;;5065640;28;20443;-57
2023/02/20 01:01:28;;;;;;;8.23;4.45;;;;;;;;;;5058241;28;20017;-57
2023/02/20 01:03:54;;;;;;;12.38;4.53;;;;;;;;;;5068301;28;20078;-56
2023/02/20 01:06:19;;;;;;;9.68;4.25;;;;;;;;;;5066308;28;20032;-57
2023/02/20 01:08:44;;;;;;;12.88;4.65;;;;;;;;;;5062307;28;20029;-57
2023/02/20 01:11:10;;;;;;;11.00;4.07;;;;;;;;;;5062138;28;20374;-58
2023/02/20 01:13:35;;;;;;;8.55;4.45;;;;;;;;;;5070471;28;20028;-57
2023/02/20 01:16:00;;;;;;;9.90;4.40;;;;;;;;;;5069895;28;20043;-58
2023/02/20 01:18:26;;;;;;;7.88;4.53;;;;;;;;;;5062127;28;20032;-57
2023/02/20 01:20:51;;;;;;;8.43;3.90;;;;;;;;;;5057498;28;20035;-57
2023/02/20 01:23:17;;;;;;;9.82;4.65;;;;;;;;;;5071723;28;20450;-57
2023/02/20 01:25:43;;;;;;;8.82;4.32;;;;;;;;;;5063545;28;20091;-58
2023/02/20 01:28:08;;;;;;;12.70;4.30;;;;;;;;;;5060690;28;20075;-58
2023/02/20 01:30:34;;;;;;;16.17;4.30;;;;;;;;;;5060223;28;20049;-56
2023/02/20 01:32:59;;;;;;;9.18;4.43;;;;;;;;;;5062335;28;20025;-58
2023/02/20 01:35:29;;;;;;;11.85;4.43;;;;;;;;;;5068487;28;20538;-58
2023/02/20 01:37:55;;;;;;;12.48;4.88;;;;;;;;;;5061367;28;20548;-58
2023/02/20 01:40:22;;;;;;;8.55;4.07;;;;;;;;;;5060886;28;20041;-58
2023/02/20 01:42:48;;;;;;;15.02;4.80;;;;;;;;;;5060649;28;20419;-58
2023/02/20 01:45:35;;;;;;;9.00;4.30;;;;;;;;;;5062101;28;20024;-58
2023/02/20 01:48:00;;;;;;;14.40;4.05;;;;;;;;;;5061444;28;20455;-58
2023/02/20 01:50:34;;;;;;;13.05;4.05;;;;;;;;;;5059546;28;20112;-58
2023/02/20 01:53:11;;;;;;;12.32;4.43;;;;;;;;;;5061051;28;20028;-58
2023/02/20 01:55:42;;;;;;;11.48;4.03;;;;;;;;;;5065965;28;20040;-58
2023/02/20 01:58:11;;;;;;;10.77;4.45;;;;;;;;;;5061198;28;20032;-58
2023/02/20 02:00:37;;;;;;;8.75;4.20;;;;;;;;;;5066122;28;20033;-58
2023/02/20 02:03:07;;;;;;;17.42;5.30;;;;;;;;;;5061957;28;20036;-58
2023/02/20 02:05:35;;;;;;;11.18;4.70;;;;;;;;;;5065717;28;20397;-58
2023/02/20 02:08:03;;;;;;;10.73;4.45;;;;;;;;;;5058856;28;20060;-58
2023/02/20 02:10:35;;;;;;;11.52;3.92;;;;;;;;;;5061536;28;20029;-58
2023/02/20 02:13:01;;;;;;;9.80;4.00;;;;;;;;;;5060826;28;20028;-58
2023/02/20 02:15:27;;;;;;;11.25;4.28;;;;;;;;;;5061195;28;20028;-58
2023/02/20 02:18:07;;;;;;;11.38;4.63;;;;;;;;;;5061683;28;20560;-58
2023/02/20 02:20:51;;;;;;;11.02;4.25;;;;;;;;;;5066988;28;20029;-57
2023/02/20 02:23:33;;;;;;;10.25;4.80;;;;;;;;;;5059575;28;20028;-58
2023/02/20 02:26:17;;;;;;;10.48;4.57;;;;;;;;;;5061659;28;20090;-57
2023/02/20 02:29:01;;;;;;;11.52;4.55;;;;;;;;;;5053367;28;20045;-58
2023/02/20 02:31:53;;;;;;;8.93;4.10;;;;;;;;;;5065256;28;20025;-57
2023/02/20 02:34:34;;;;;;;15.80;4.60;;;;;;;;;;5062306;28;20479;-58
2023/02/20 02:37:22;;;;;;;11.30;4.38;;;;;;;;;;5060032;28;20052;-58
2023/02/20 02:39:56;;;;;;;12.27;4.43;;;;;;;;;;5060971;28;20116;-58
2023/02/20 02:42:27;;;;;;;18.75;5.07;;;;;;;;;;5062669;28;20028;-57
2023/02/20 02:45:08;;;;;;;11.90;4.38;;;;;;;;;;5068684;28;20085;-58
2023/02/20 02:47:36;;;;;;;7.68;4.28;;;;;;;;;;5066867;28;20048;-57
2023/02/20 02:50:07;;;;;;;11.38;4.10;;;;;;;;;;5065586;28;20028;-59
2023/02/20 02:52:48;;;;;;;12.63;4.60;;;;;;;;;;5068511;28;20043;-56
2023/02/20 02:55:24;;;;;;;9.10;4.20;;;;;;;;;;5074207;28;20489;-57
2023/02/20 02:57:49;;;;;;;17.40;4.28;;;;;;;;;;5067730;28;20024;-58
2023/02/20 03:00:14;;;;;;;10.52;4.47;;;;;;;;;;5067813;28;20032;-57
2023/02/20 03:02:48;;;;;;;15.50;4.47;;;;;;;;;;5069267;28;20514;-58
2023/02/20 03:05:19;;;;;;;11.80;4.38;;;;;;;;;;5070025;28;20033;-57
2023/02/20 03:07:51;;;;;;;13.30;4.38;;;;;;;;;;5064296;28;20032;-57
2023/02/20 03:10:20;;;;;;;13.57;4.72;;;;;;;;;;5066086;28;20028;-56
2023/02/20 03:12:50;;;;;;;13.35;4.65;;;;;;;;;;5068064;28;20025;-57
2023/02/20 03:15:32;;;;;;;;;;;;;;;;;;5062238;28;20027;-58
2023/02/20 03:18:35;;;;;;;14.20;4.97;;;;;;;;;;5062001;28;20006;-59
2023/02/20 03:21:10;;;;;;;9.57;5.03;;;;;;;;;;5069433;28;20056;-57
2023/02/20 03:23:43;;;;;;;16.75;5.25;;;;;;;;;;5067951;28;20024;-57
2023/02/20 03:26:16;;;;;;;9.23;4.32;;;;;;;;;;5068309;28;20402;-57
2023/02/20 03:28:47;;;;;;;11.07;4.20;;;;;;;;;;5065457;28;20020;-57
2023/02/20 03:31:18;;;;;;;14.93;5.03;;;;;;;;;;5068078;28;20033;-58
2023/02/20 03:44:57;;;;;;;14.80;4.80;;;;;;;;;;5068143;28;20031;-58
2023/02/20 03:47:27;;;;;;;15.48;5.00;;;;;;;;;;5067774;28;20107;-57
2023/02/20 03:49:53;;;;;;;;;;;;;;;;;;5062675;28;20021;-57
2023/02/20 03:52:20;;;;;;;12.60;5.00;;;;;;;;;;5067970;28;19912;-58
2023/02/20 03:54:45;;;;;;;10.35;4.97;;;;;;;;;;5068509;28;20696;-58
2023/02/20 03:57:18;;;;;;;10.13;4.70;;;;;;;;;;5064995;28;20032;-58
2023/02/20 03:59:49;;;;;;;12.13;4.75;;;;;;;;;;5061830;28;20043;-58
2023/02/20 04:02:29;;;;;;;15.13;4.80;;;;;;;;;;5062354;28;20329;-58
2023/02/20 04:04:59;;;;;;;16.33;5.30;;;;;;;;;;5064107;28;20024;-58
2023/02/20 04:07:33;;;;;;;11.32;4.65;;;;;;;;;;5063863;28;20017;-58
2023/02/20 04:10:01;;;;;;;12.75;4.68;;;;;;;;;;5069726;28;20046;-58
2023/02/20 04:12:32;;;;;;;9.63;4.95;;;;;;;;;;5070469;28;20540;-57
2023/02/20 04:14:59;;;;;;;9.60;4.65;;;;;;;;;;5072589;28;20036;-58
2023/02/20 04:18:06;;;;;;;14.35;4.45;;;;;;;;;;5069495;28;20020;-58
2023/02/20 04:20:32;;;;;;;14.25;5.32;;;;;;;;;;5070932;28;20667;-58
2023/02/20 04:23:06;;;;;;;11.13;4.78;;;;;;;;;;5071048;28;20032;-58
2023/02/20 04:25:43;;;;;;;13.07;5.22;;;;;;;;;;5072055;28;20099;-58
2023/02/20 04:28:10;;;;;;;13.52;5.20;;;;;;;;;;5064823;28;20024;-57
2023/02/20 04:30:36;;;;;;;12.75;4.97;;;;;;;;;;5068561;28;20021;-57
2023/02/20 04:33:01;;;;;;;13.90;5.55;;;;;;;;;;5069400;28;20089;-58
2023/02/20 04:35:27;;;;;;;14.38;4.50;;;;;;;;;;5070268;28;20485;-58
2023/02/20 04:37:52;;;;;;;10.05;5.22;;;;;;;;;;5068395;28;20059;-58
2023/02/20 04:40:21;;;;;;;11.98;5.32;;;;;;;;;;5070607;28;20028;-57
2023/02/20 04:42:46;;;;;;;17.58;5.78;;;;;;;;;;5070102;28;20052;-57
2023/02/20 04:45:11;;;;;;;11.73;5.28;;;;;;;;;;5071402;28;20105;-58
2023/02/20 04:47:37;;;;;;;13.45;4.47;;;;;;;;;;5068700;28;20066;-57
2023/02/20 04:50:03;;;;;;;13.10;5.05;;;;;;;;;;5070182;28;20024;-58
2023/02/20 04:52:28;;;;;;;13.18;4.95;;;;;;;;;;5069261;28;20032;-58
2023/02/20 04:54:54;;;;;;;13.50;5.15;;;;;;;;;;5070835;28;20025;-57
2023/02/20 04:57:21;;;;;;;16.48;5.32;;;;;;;;;;5068965;28;20024;-58
2023/02/20 04:59:46;;;;;;;10.23;4.80;;;;;;;;;;5069024;28;20259;-57
2023/02/20 05:02:12;;;;;;;15.55;5.03;;;;;;;;;;5068680;28;20028;-58
2023/02/20 05:04:37;;;;;;;9.35;3.92;;;;;;;;;;5070319;28;20032;-58
2023/02/20 05:07:03;;;;;;;11.77;4.40;;;;;;;;;;5066521;28;20041;-57
2023/02/20 05:09:28;;;;;;;16.17;5.30;;;;;;;;;;5066608;28;20033;-58
2023/02/20 05:11:54;;;;;;;13.00;5.15;;;;;;;;;;5066148;28;20028;-58
2023/02/20 05:14:20;;;;;;;13.93;6.10;;;;;;;;;;5063554;28;20028;-58
2023/02/20 05:16:46;;;;;;;17.58;5.32;;;;;;;;;;5067773;28;20512;-57
2023/02/20 05:19:13;;;;;;;10.40;5.25;;;;;;;;;;5065462;28;20112;-57
2023/02/20 05:24:27;;;;;;;14.07;5.15;;;;;;;;;;5063688;28;20036;-58
2023/02/20 05:26:53;;;;;;;11.40;4.63;;;;;;;;;;5068995;28;20025;-58
2023/02/20 05:29:18;;;;;;;8.93;4.63;;;;;;;;;;5070448;28;20031;-58
2023/02/20 05:31:44;;;;;;;11.90;5.22;;;;;;;;;;5067892;28;20036;-58
2023/02/20 05:34:09;;;;;;;10.95;4.72;;;;;;;;;;5070586;28;20404;-57
2023/02/20 05:36:35;;;;;;;14.35;4.72;;;;;;;;;;5068304;28;20024;-59
2023/02/20 05:39:00;;;;;;;17.10;5.20;;;;;;;;;;5069217;28;20402;-58
2023/02/20 05:41:26;;;;;;;11.70;4.70;;;;;;;;;;5069564;28;20028;-58
2023/02/20 05:43:56;;;;;;;18.17;4.93;;;;;;;;;;5072441;28;20036;-58
2023/02/20 05:46:25;;;;;;;13.23;5.00;;;;;;;;;;5069222;28;20375;-57
2023/02/20 05:48:51;;;;;;;14.33;5.83;;;;;;;;;;5068960;28;20077;-58
2023/02/20 05:51:26;;;;;;;11.70;5.30;;;;;;;;;;5062050;28;20397;-57
2023/02/20 05:53:51;;;;;;;18.23;5.60;;;;;;;;;;5068122;28;20025;-59
2023/02/20 05:56:17;;;;;;;15.32;4.95;;;;;;;;;;5069867;28;20027;-57
2023/02/20 05:58:44;;;;;;;15.52;6.10;;;;;;;;;;5068293;28;20129;-58
2023/02/20 06:01:21;;;;;;;15.02;5.38;;;;;;;;;;5063801;28;20029;-57
2023/02/20 06:03:46;;;;;;;14.82;6.15;;;;;;;;;;5060990;28;20107;-56
2023/02/20 06:06:12;;;;;;;14.77;5.80;;;;;;;;;;5059396;28;20124;-57
2023/02/20 06:08:39;;;;;;;15.20;6.03;;;;;;;;;;5054076;28;20021;-57
2023/02/20 06:11:04;;;;;;;13.25;5.80;;;;;;;;;;5064637;28;20029;-57
2023/02/20 06:13:30;;;;;;;11.75;5.80;;;;;;;;;;5058500;28;20592;-56
2023/02/20 06:15:55;;;;;;;12.68;5.47;;;;;;;;;;5054225;28;20025;-58
2023/02/20 06:18:21;;;;;;;12.57;6.40;;;;;;;;;;5059198;28;20758;-57
2023/02/20 06:20:46;;;;;;;14.50;6.78;;;;;;;;;;5057658;28;20029;-57
2023/02/20 06:23:12;;;;;;;15.43;8.02;;;;;;;;;;5064310;28;20094;-57
2023/02/20 06:25:37;;;;;;;16.95;6.93;;;;;;;;;;5065024;28;20021;-57
2023/02/20 06:28:03;;;;;;;10.95;5.80;;;;;;;;;;5067564;28;20031;-57
2023/02/20 06:30:28;;;;;;;5.22;3.28;;;;;;;;;;5069087;28;20020;-57
2023/02/20 06:32:53;;;;;;;10.90;4.10;;;;;;;;;;5063961;28;20089;-57
2023/02/20 06:35:19;;;;;;;9.88;4.78;;;;;;;;;;5072446;28;20036;-56
2023/02/20 06:37:44;;;;;;;10.38;4.85;;;;;;;;;;5056557;28;20024;-57
2023/02/20 06:40:10;;;;;;;14.00;4.80;;;;;;;;;;5063366;28;20028;-57
2023/02/20 06:42:36;;;;;;;14.75;4.82;;;;;;;;;;5068526;28;20078;-58
2023/02/20 06:45:01;;;;;;;10.07;4.55;;;;;;;;;;5067989;28;20540;-57
2023/02/20 06:47:27;;;;;;;8.95;4.13;;;;;;;;;;5066577;28;20051;-57
2023/02/20 06:49:52;;;;;;;12.30;4.25;;;;;;;;;;5065335;28;20032;-57
2023/02/20 06:52:17;;;;;;;9.30;4.63;;;;;;;;;;5063612;28;20028;-58
2023/02/20 06:54:43;;;;;;;8.63;5.05;;;;;;;;;;5064297;28;20082;-57
2023/02/20 06:57:09;;;;;;;12.80;5.00;;;;;;;;;;5055784;28;20016;-55
2023/02/20 06:59:40;;;;;;;10.48;5.22;;;;;;;;;;5063371;28;20119;-56
2023/02/20 07:02:09;;;;;;;18.10;6.60;;;;;;;;;;5064256;28;20056;-57
2023/02/20 07:04:34;;;;;;;12.35;5.70;;;;;;;;;;5062265;28;20375;-56
2023/02/20 07:07:01;;;;;;;12.07;4.50;;;;;;;;;;5063815;28;20028;-57
2023/02/20 07:09:27;;;;;;;13.30;4.72;;;;;;;;;;5058352;28;20047;-58
2023/02/20 07:11:53;;;;;;;15.98;5.40;;;;;;;;;;5056731;28;20024;-57
2023/02/20 07:14:19;;;;;;;12.90;5.47;;;;;;;;;;5064479;28;20024;-56
2023/02/20 07:16:44;;;;;;;14.38;5.20;;;;;;;;;;5058583;28;20123;-58
2023/02/20 07:19:09;;;;;;;14.10;5.57;;;;;;;;;;5063266;28;20059;-57
2023/02/20 07:21:35;;;;;;;8.68;3.83;;;;;;;;;;5062002;28;20082;-58
2023/02/20 07:24:00;;;;;;;12.80;4.32;;;;;;;;;;5061581;28;20032;-57
2023/02/20 07:26:28;;;;;;;9.57;4.57;;;;;;;;;;5058191;28;20021;-56
2023/02/20 07:28:57;;;;;;;10.38;5.32;;;;;;;;;;5059521;28;20382;-56
2023/02/20 07:31:26;;;;;;;20.52;7.70;;;;;;;;;;5059161;28;20031;-57
2023/02/20 07:33:51;;;;;;;17.27;7.20;;;;;;;;;;5064386;28;20638;-56
2023/02/20 07:36:17;;;;;;;13.10;5.45;;;;;;;;;;5060183;28;20036;-57
2023/02/20 07:38:53;;;;;;;7.50;4.32;;;;;;;;;;5058249;28;20032;-57
2023/02/20 07:41:18;;;;;;;10.18;5.15;;;;;;;;;;5059185;28;20028;-54
2023/02/20 07:43:44;;;;;;;13.50;6.05;;;;;;;;;;5065601;28;20090;-56
2023/02/20 07:46:10;;;;;;;19.05;6.72;;;;;;;;;;5058182;28;20140;-57
2023/02/20 07:48:35;;;;;;;10.95;4.03;;;;;;;;;;5068345;28;20577;-57
2023/02/20 07:51:01;;;;;;;10.80;4.35;;;;;;;;;;5066042;28;20024;-55
2023/02/20 07:53:27;;;;;;;10.50;3.13;;;;;;;;;;5068091;28;20363;-57
2023/02/20 07:55:52;;;;;;;12.23;3.45;;;;;;;;;;5063943;28;20584;-56
2023/02/20 07:58:18;;;;;;;9.70;2.85;;;;;;;;;;5057659;28;20090;-56
2023/02/20 08:00:43;;;;;;;6.55;2.90;;;;;;;;;;5064058;28;20077;-57
2023/02/20 08:03:08;;;;;;;7.93;3.08;;;;;;;;;;5062593;28;20041;-57
2023/02/20 08:05:34;;;;;;;7.18;3.53;;;;;;;;;;5059073;28;20029;-56
2023/02/20 08:07:59;;;;;;;8.27;3.60;;;;;;;;;;5052867;28;20124;-56
2023/02/20 08:10:27;;;;;;;7.40;3.33;;;;;;;;;;5063480;28;20083;-56
2023/02/20 08:12:53;;;;;;;8.43;3.78;;;;;;;;;;5058674;28;20482;-57
2023/02/20 08:15:20;;;;;;;9.68;3.78;;;;;;;;;;5063893;28;20438;-56
2023/02/20 08:17:46;;;;;;;10.00;3.67;;;;;;;;;;5064320;28;20091;-57
2023/02/20 08:20:13;;;;;;;8.38;3.88;;;;;;;;;;5063030;28;20490;-56
2023/02/20 08:22:39;;;;;;;12.18;4.10;;;;;;;;;;5063439;28;20678;-56
2023/02/20 08:25:04;;;;;;;12.10;4.72;;;;;;;;;;5061380;28;20029;-57
2023/02/20 08:27:31;;;;;;;9.77;3.92;;;;;;;;;;5063712;28;20116;-57
2023/02/20 08:29:57;;;;;;;8.45;3.90;;;;;;;;;;5057756;28;20029;-56
2023/02/20 08:32:22;;;;;;;9.63;3.95;;;;;;;;;;5057326;28;20028;-57
2023/02/20 08:34:48;;;;;;;12.63;4.18;;;;;;;;;;5063454;28;20039;-56
2023/02/20 08:37:13;;;;;;;13.25;4.35;;;;;;;;;;5056468;28;20033;-56
2023/02/20 08:39:39;;;;;;;11.73;4.65;;;;;;;;;;5054398;28;20028;-56
2023/02/20 08:42:05;;;;;;;8.15;3.85;;;;;;;;;;5058103;28;20033;-58
2023/02/20 08:44:30;;;;;;;8.52;4.65;;;;;;;;;;5060183;28;20375;-57
2023/02/20 08:46:56;;;;;;;8.05;4.20;;;;;;;;;;5060471;28;20075;-57
2023/02/20 08:49:22;;;;;;;7.25;3.58;;;;;;;;;;5062561;28;20040;-58
2023/02/20 08:51:51;;;;;;;7.50;3.72;;;;;;;;;;5062151;28;20078;-57
2023/02/20 08:54:17;;;;;;;7.80;3.75;;;;;;;;;;5059744;28;20063;-57
2023/02/20 08:56:43;;;;;;;11.35;4.03;;;;;;;;;;5065322;28;20060;-57
2023/02/20 08:59:08;;;;;;;7.18;3.67;;;;;;;;;;5066721;28;20530;-57
2023/02/20 09:01:34;;;;;;;9.02;4.53;;;;;;;;;;5056929;28;20560;-57
2023/02/20 09:03:59;;;;;;;9.60;4.15;;;;;;;;;;5062448;28;20375;-57
2023/02/20 09:06:27;;;;;;;11.23;4.43;;;;;;;;;;5058468;28;20433;-57
2023/02/20 09:08:52;;;;;;;7.80;4.10;;;;;;;;;;5057200;28;20025;-56
2023/02/20 09:11:18;;;;;;;10.38;4.82;;;;;;;;;;5057651;28;20028;-57
2023/02/20 09:13:44;;;;;;;10.00;3.92;;;;;;;;;;5065815;28;20037;-57
2023/02/20 09:16:11;;;;;;;8.20;3.50;;;;;;;;;;5058944;28;20104;-57
2023/02/20 09:18:37;;;;;;;8.27;3.80;;;;;;;;;;5066755;28;20039;-57
2023/02/20 09:21:02;;;;;;;7.78;4.05;;;;;;;;;;5062218;28;20112;-57
2023/02/20 09:23:28;;;;;;;14.20;4.60;;;;;;;;;;5062703;28;20078;-57
2023/02/20 09:25:54;;;;;;;9.30;3.67;;;;;;;;;;5056835;28;20432;-57
2023/02/20 09:28:19;;;;;;;10.13;3.95;;;;;;;;;;5060028;28;20036;-57
2023/02/20 09:30:45;;;;;;;11.38;4.20;;;;;;;;;;5064030;28;20029;-57
2023/02/20 09:33:10;;;;;;;7.60;3.80;;;;;;;;;;5067049;28;20032;-56
2023/02/20 09:35:36;;;;;;;7.65;3.40;;;;;;;;;;5065235;28;20062;-57
2023/02/20 09:38:01;;;;;;;10.23;3.38;;;;;;;;;;5057048;28;20497;-56
2023/02/20 09:40:30;;;;;;;4.60;2.58;;;;;;;;;;5064243;28;20033;-58
2023/02/20 09:43:02;;;;;;;8.40;4.05;;;;;;;;;;5066181;28;20036;-57
2023/02/20 09:45:32;;;;;;;7.35;3.30;;;;;;;;;;5060423;28;20489;-57
2023/02/20 09:47:57;;;;;;;12.88;5.22;;;;;;;;;;5065463;28;20401;-56
2023/02/20 09:50:36;;;;;;;9.50;5.15;;;;;;;;;;5059627;28;20032;-59
2023/02/20 09:53:21;;;;;;;7.38;3.63;;;;;;;;;;5065159;28;20379;-57
2023/02/20 09:55:48;;;;;;;8.50;3.60;;;;;;;;;;5060839;28;20039;-56
2023/02/20 09:58:38;;;;;;;6.68;3.00;;;;;;;;;;5060661;28;20027;-56
2023/02/20 10:01:05;;;;;;;6.95;3.15;;;;;;;;;;5067146;28;20040;-58
2023/02/20 10:03:48;;;;;;;8.75;2.53;;;;;;;;;;5066794;28;20489;-58
2023/02/20 10:06:18;;;;;;;7.28;2.75;;;;;;;;;;5063153;28;20037;-57
2023/02/20 10:08:48;;;;;;;7.00;2.60;;;;;;;;;;5056143;28;20043;-56
2023/02/20 10:11:27;;;;;;;8.65;2.90;;;;;;;;;;5055972;28;20090;-57
2023/02/20 10:14:09;;;;;;;7.28;3.25;;;;;;;;;;5060388;28;20039;-56
2023/02/20 10:16:45;;;;;;;8.63;3.42;;;;;;;;;;5060936;28;20444;-58
2023/02/20 10:19:55;;;;;;;9.02;4.07;;;;;;;;;;5058532;28;20020;-58
2023/02/20 10:22:37;;;;;;;5.35;2.83;;;;;;;;;;5060061;28;20020;-58
2023/02/20 10:25:28;;;;;;;13.18;4.63;;;;;;;;;;5061062;28;20037;-58
2023/02/20 10:28:23;;;;;;;11.73;4.40;;;;;;;;;;5057270;28;20028;-57
2023/02/20 10:31:01;;;;;;;13.15;4.07;;;;;;;;;;5052788;28;20149;-58
2023/02/20 10:33:27;;;;;;;10.25;3.20;;;;;;;;;;5061048;28;20107;-58
2023/02/20 10:36:19;;;;;;;8.38;3.00;;;;;;;;;;5059065;28;20116;-58
2023/02/20 10:39:07;;;;;;;8.82;2.85;;;;;;;;;;5058306;28;20101;-58
2023/02/20 10:42:07;;;;;;;9.70;3.17;;;;;;;;;;5058502;28;20204;-58
2023/02/20 10:44:44;;;;;;;7.18;3.80;;;;;;;;;;5058433;28;20029;-58
2023/02/20 10:47:23;;;;;;;7.50;3.97;;;;;;;;;;5059918;28;20571;-58
2023/02/20 10:49:51;;;;;;;8.45;3.53;;;;;;;;;;5056944;28;20087;-58
2023/02/20 10:52:24;;;;;;;6.38;3.10;;;;;;;;;;5056560;28;20029;-58
2023/02/20 10:55:03;;;;;;;12.60;5.18;;;;;;;;;;5056197;28;20124;-59
2023/02/20 10:57:35;;;;;;;12.98;5.10;;;;;;;;;;5058516;28;20024;-58
2023/02/20 11:00:26;;;;;;;13.63;3.78;;;;;;;;;;5062163;28;20409;-58
2023/02/20 11:02:58;;;;;;;11.68;4.43;;;;;;;;;;5051249;28;20501;-57
2023/02/20 11:05:29;;;;;;;11.27;3.60;;;;;;;;;;5062262;28;20020;-59
2023/02/20 11:07:55;;;;;;;9.35;3.75;;;;;;;;;;5062753;28;20040;-58
2023/02/20 11:10:20;;;;;;;7.55;3.80;;;;;;;;;;5058096;28;20024;-57
2023/02/20 11:12:55;;;;;;;6.40;3.17;;;;;;;;;;5060248;28;20028;-58
2023/02/20 11:15:24;;;;;;;7.00;3.20;;;;;;;;;;5058891;28;20569;-58
2023/02/20 11:17:51;;;;;;;;;;;;;;;;;;5060246;28;20032;-58
2023/02/20 11:20:32;;;;;;;5.10;3.05;;;;;;;;;;5058665;28;19913;-58
2023/02/20 11:23:00;;;;;;;10.45;2.97;;;;;;;;;;5053508;28;20016;-58
2023/02/20 11:25:36;;;;;;;6.78;2.85;;;;;;;;;;5058785;28;20052;-58
2023/02/20 11:28:16;;;;;;;7.88;3.13;;;;;;;;;;5060150;28;20402;-58
2023/02/20 11:30:45;;;;;;;8.77;2.97;;;;;;;;;;5046657;28;20028;-58
2023/02/20 11:33:22;;;;;;;5.35;2.60;;;;;;;;;;5059716;28;20035;-58
2023/02/20 11:35:51;;;;;;;5.60;2.40;;;;;;;;;;5054764;28;20065;-58
2023/02/20 11:38:18;;;;;;;5.35;2.58;;;;;;;;;;5053755;28;20027;-59
2023/02/20 11:41:02;;;;;;;6.22;2.67;;;;;;;;;;5057379;28;20045;-55
2023/02/20 11:43:30;;;;;;;4.72;2.40;;;;;;;;;;5058965;28;20085;-58
2023/02/20 11:46:10;;;;;;;4.43;2.40;;;;;;;;;;5059410;28;20111;-58
2023/02/20 11:48:36;;;;;;;6.03;2.72;;;;;;;;;;5062074;28;20036;-57
2023/02/20 11:51:02;;;;;;;7.68;2.20;;;;;;;;;;5064909;28;20032;-58
2023/02/20 11:53:31;;;;;;;4.65;2.40;;;;;;;;;;5054410;28;20520;-58
2023/02/20 11:56:16;;;;;;;6.38;2.75;;;;;;;;;;5057866;28;20017;-57
2023/02/20 11:58:44;;;;;;;10.10;3.10;;;;;;;;;;5057852;28;20116;-59
2023/02/20 12:01:33;;;;;;;4.57;2.60;;;;;;;;;;5057740;28;20398;-59
2023/02/20 12:04:00;;;;;;;6.25;2.70;;;;;;;;;;5047096;28;20090;-58
2023/02/20 12:06:32;;;;;;;3.95;2.15;;;;;;;;;;5056630;28;20083;-59
2023/02/20 12:08:58;;;;;;;6.20;2.47;;;;;;;;;;5053509;28;20083;-58
2023/02/20 12:11:25;;;;;;;2.88;1.77;;;;;;;;;;5055874;28;20449;-57
2023/02/20 12:13:54;;;;;;;7.63;2.13;;;;;;;;;;5063317;28;20036;-58
2023/02/20 12:16:34;;;;;;;4.47;2.00;;;;;;;;;;5061797;28;20079;-58
2023/02/20 12:19:19;;;;;;;4.03;1.95;;;;;;;;;;5062320;28;20037;-59
2023/02/20 12:21:47;;;;;;;4.30;2.30;;;;;;;;;;5056285;28;20105;-59
2023/02/20 12:24:53;;;;;;;4.85;2.38;;;;;;;;;;5061183;28;20111;-58
2023/02/20 12:27:40;;;;;;;5.30;1.70;;;;;;;;;;5006690;28;20041;-58
2023/02/20 12:30:17;;;;;;;4.22;1.85;;;;;;;;;;5062393;28;20029;-59
2023/02/20 12:33:04;;;;;;;2.60;1.38;;;;;;;;;;5061235;28;20028;-57
2023/02/20 12:35:42;;;;;;;3.97;1.80;;;;;;;;;;5063141;28;20060;-58
2023/02/20 12:38:14;;;;;;;5.35;1.83;;;;;;;;;;5057995;28;20021;-57
2023/02/20 12:41:04;;;;;;;3.05;1.85;;;;;;;;;;5064948;28;20035;-58
2023/02/20 12:43:51;;;;;;;5.00;1.58;;;;;;;;;;5061080;28;20021;-59
2023/02/20 12:47:03;;;;;;;3.47;1.40;;;;;;;;;;5060321;28;20060;-58
2023/02/20 12:49:50;;;;;;;3.63;1.85;;;;;;;;;;5030873;28;20037;-57
2023/02/20 12:52:33;;;;;;;5.28;1.50;;;;;;;;;;5066180;28;20057;-58
2023/02/20 12:55:21;;;;;;;4.70;1.50;;;;;;;;;;5060657;28;20044;-58
2023/02/20 12:58:03;;;;;;;3.70;1.38;;;;;;;;;;5060558;28;20385;-58
2023/02/20 13:00:31;;;;;;;3.53;1.35;;;;;;;;;;5063459;28;20020;-58
2023/02/20 13:03:05;;;;;;;5.75;1.50;;;;;;;;;;5066616;28;20094;-58
2023/02/20 13:05:33;;;;;;;3.05;1.33;;;;;;;;;;5064913;28;20056;-58
2023/02/20 13:08:34;;;;;;;6.07;1.73;;;;;;;;;;5065729;28;20056;-58
2023/02/20 13:11:29;;;;;;;2.78;1.20;;;;;;;;;;5060329;28;20044;-59
2023/02/20 13:14:14;;;;;;;3.97;1.23;;;;;;;;;;5060546;28;20033;-57
2023/02/20 13:16:41;;;;;;;3.25;1.30;;;;;;;;;;5066891;28;20023;-58
2023/02/20 13:19:31;;;;;;;2.03;1.10;;;;;;;;;;5067465;28;20032;-56
2023/02/20 13:21:57;;;;;;;3.17;1.85;;;;;;;;;;5064647;28;20024;-57
2023/02/20 13:24:22;;;;;;;2.85;1.60;;;;;;;;;;5064275;28;20086;-59
2023/02/20 13:26:51;;;;;;;3.50;1.40;;;;;;;;;;5064531;28;20174;-58
2023/02/20 13:29:25;;;;;;;2.78;1.23;;;;;;;;;;5066215;28;20509;-59
2023/02/20 13:31:52;;;;;;;4.45;1.48;;;;;;;;;;5066126;28;20036;-58
2023/02/20 13:34:17;;;;;;;2.70;1.60;;;;;;;;;;5062649;28;20052;-57
2023/02/20 13:36:47;;;;;;;3.78;1.30;;;;;;;;;;5062507;28;20036;-58
2023/02/20 13:39:24;;;;;;;3.05;1.13;;;;;;;;;;5066918;28;20024;-58
2023/02/20 13:42:22;;;;;;;2.83;1.23;;;;;;;;;;5059792;28;20055;-57
2023/02/20 13:44:49;;;;;;;3.33;1.00;;;;;;;;;;5060177;28;20032;-59
2023/02/20 13:47:18;;;;;;;3.13;1.40;;;;;;;;;;5063448;28;20112;-58
2023/02/20 13:49:48;;;;;;;3.80;1.17;;;;;;;;;;5058811;28;20032;-57
2023/02/20 13:52:38;;;;;;;1.45;0.70;;;;;;;;;;5060626;28;20046;-59
2023/02/20 13:55:10;;;;;;;4.78;1.15;;;;;;;;;;5063450;28;20028;-58
2023/02/20 13:57:47;;;;;;;2.42;1.00;;;;;;;;;;5064097;28;20024;-58
2023/02/20 14:00:27;;;;;;;2.92;0.95;;;;;;;;;;5065355;28;20027;-58
2023/02/20 14:02:54;;;;;;;3.65;1.25;;;;;;;;;;5061840;28;20039;-59
2023/02/20 14:05:30;;;;;;;4.65;1.60;;;;;;;;;;5066032;28;20024;-58
2023/02/20 14:07:57;;;;;;;3.03;1.38;;;;;;;;;;5060125;28;20036;-58
2023/02/20 14:10:35;;;;;;;4.13;1.20;;;;;;;;;;5062094;28;20067;-58
2023/02/20 14:13:12;;;;;;;3.58;1.20;;;;;;;;;;5061382;28;20036;-57
2023/02/20 14:15:53;;;;;;;3.55;1.50;;;;;;;;;;5063317;28;20119;-58
2023/02/20 14:18:27;;;;;;;2.75;1.33;;;;;;;;;;5062482;28;20035;-58
2023/02/20 14:21:09;;;;;;;4.85;1.30;;;;;;;;;;5063163;28;20115;-58
2023/02/20 14:23:37;;;;;;;4.28;1.13;;;;;;;;;;5059636;28;20031;-58
2023/02/20 14:26:16;;;;;;;3.38;1.55;;;;;;;;;;5063549;28;20090;-58
2023/02/20 14:28:45;;;;;;;3.55;1.70;;;;;;;;;;5057992;28;20033;-58
2023/02/20 14:31:26;;;;;;;4.20;1.40;;;;;;;;;;5056683;28;20429;-58
2023/02/20 14:34:00;;;;;;;4.00;2.33;;;;;;;;;;5061312;28;20450;-59
2023/02/20 14:36:51;;;;;;;2.35;0.90;;;;;;;;;;5055908;28;20028;-59
2023/02/20 14:39:26;;;;;;;3.55;1.70;;;;;;;;;;5039086;28;20041;-58
2023/02/20 14:41:55;;;;;;;1.90;1.10;;;;;;;;;;5062939;28;20502;-59
2023/02/20 14:44:21;;;;;;;3.28;1.70;;;;;;;;;;5062813;28;20024;-58
2023/02/20 14:46:50;;;;;;;3.15;1.30;;;;;;;;;;5059830;28;20028;-58
2023/02/20 14:49:23;;;;;;;3.35;1.10;;;;;;;;;;5062140;28;20029;-58
2023/02/20 14:51:49;;;;;;;4.90;1.42;;;;;;;;;;5056990;28;20059;-58
2023/02/20 14:54:28;;;;;;;3.78;1.40;;;;;;;;;;5058387;28;20064;-58
2023/02/20 14:56:54;;;;;;;2.97;0.90;;;;;;;;;;5060148;28;20024;-58
2023/02/20 14:59:29;;;;;;;2.70;1.10;;;;;;;;;;5058534;28;20048;-58
2023/02/20 15:01:58;;;;;;;3.70;1.63;;;;;;;;;;5058691;28;20032;-59
2023/02/20 15:04:25;;;;;;;;;;;;;;;;;;5081305;28;20734;-59
2023/02/20 15:06:52;;;;;;;3.72;1.65;;;;;;;;;;5066743;28;19995;-58
2023/02/20 15:09:19;;;;;;;3.13;1.17;;;;;;;;;;5056055;28;20048;-58
2023/02/20 15:11:46;;;;;;;2.20;1.25;;;;;;;;;;5062527;28;20119;-60
2023/02/20 15:14:21;;;;;;;2.60;1.50;;;;;;;;;;5058289;28;20513;-58